Time;durP1;ratioP1;P1;durP2;ratioP2;P2;SDS_P1;SDS_P2;PMS_P1;PMS_P2;Temp;Humidity;BMP_temperature;BMP_pressure;BME280_temperature;BME280_humidity;BME280_pressure;Samples;Min_cycle;Max_cycle;Signal;HPM_P1;HPM_P2
2023/12/26 00:01:12;;;;;;;6.20;1.27;;;10.50;99.90;;;;;;5059467;28;20492;-75
2023/12/26 00:03:39;;;;;;;4.63;1.30;;;10.40;99.90;;;;;;4709156;28;9999759;-75
2023/12/26 00:06:06;;;;;;;9.55;2.42;;;10.40;99.90;;;;;;5061727;28;20052;-76
2023/12/26 00:08:34;;;;;;;14.57;2.63;;;10.40;99.90;;;;;;5056740;28;20086;-76
2023/12/26 00:11:02;;;;;;;10.02;1.85;;;10.40;99.90;;;;;;5059897;28;20056;-76
2023/12/26 00:13:29;;;;;;;7.72;1.35;;;10.30;99.90;;;;;;5056201;28;20136;-76
2023/12/26 00:15:58;;;;;;;15.70;4.05;;;10.30;99.90;;;;;;5044182;28;20063;-77
2023/12/26 00:18:25;;;;;;;6.30;1.27;;;10.30;99.90;;;;;;5050987;28;20603;-78
2023/12/26 00:20:53;;;;;;;13.52;1.48;;;10.30;99.90;;;;;;5061498;28;20094;-77
2023/12/26 00:23:20;;;;;;;13.93;1.95;;;10.30;99.90;;;;;;5052009;28;20040;-77
2023/12/26 00:25:47;;;;;;;10.43;1.65;;;10.30;99.90;;;;;;5057611;28;20089;-77
2023/12/26 00:28:16;;;;;;;5.43;1.23;;;10.30;99.90;;;;;;5062197;28;20044;-76
2023/12/26 00:30:43;;;;;;;6.47;1.55;;;10.30;99.90;;;;;;5059292;28;20076;-78
2023/12/26 00:33:10;;;;;;;13.85;2.08;;;10.50;99.90;;;;;;5051115;28;20047;-78
2023/12/26 00:35:37;;;;;;;11.02;1.60;;;10.30;99.90;;;;;;5063015;28;20059;-78
2023/12/26 00:38:04;;;;;;;12.45;1.88;;;10.40;99.90;;;;;;5068259;28;20108;-79
2023/12/26 00:40:30;;;;;;;6.18;1.85;;;10.20;99.90;;;;;;5064539;28;20052;-79
2023/12/26 00:42:57;;;;;;;11.45;1.73;;;10.20;99.90;;;;;;5062212;28;20538;-77
2023/12/26 00:45:25;;;;;;;13.55;1.60;;;10.20;99.90;;;;;;5066672;28;20083;-77
2023/12/26 00:47:52;;;;;;;10.40;2.78;;;10.20;99.90;;;;;;5055773;28;20053;-75
2023/12/26 00:50:19;;;;;;;14.45;2.08;;;10.20;99.90;;;;;;5064028;28;20048;-76
2023/12/26 00:52:46;;;;;;;9.40;1.50;;;10.20;99.90;;;;;;5069107;28;20407;-77
2023/12/26 00:55:12;;;;;;;9.00;1.60;;;10.20;99.90;;;;;;5063553;28;20063;-77
2023/12/26 00:57:40;;;;;;;12.10;1.65;;;10.20;99.90;;;;;;5066643;28;20093;-77
2023/12/26 01:00:08;;;;;;;26.52;2.58;;;10.20;99.90;;;;;;5061313;28;20053;-77
2023/12/26 01:02:34;;;;;;;9.23;1.70;;;10.20;99.90;;;;;;5055643;28;20052;-78
2023/12/26 01:05:01;;;;;;;13.95;1.85;;;10.20;99.90;;;;;;5060517;28;20055;-78
2023/12/26 01:07:28;;;;;;;10.27;1.67;;;10.20;99.90;;;;;;5058735;28;20041;-78
2023/12/26 01:09:55;;;;;;;6.32;1.13;;;10.20;99.90;;;;;;5060151;28;20052;-77
2023/12/26 01:12:22;;;;;;;12.55;2.10;;;10.20;99.90;;;;;;5064536;28;20066;-77
2023/12/26 01:14:49;;;;;;;9.68;1.45;;;10.20;99.90;;;;;;5063367;28;20048;-76
2023/12/26 01:17:16;;;;;;;7.72;1.80;;;10.30;99.90;;;;;;5066613;28;20044;-77
2023/12/26 01:19:43;;;;;;;13.82;2.17;;;10.20;99.90;;;;;;5066343;28;20053;-77
2023/12/26 01:22:09;;;;;;;10.75;2.72;;;10.20;99.90;;;;;;5066343;28;20053;-78
2023/12/26 01:24:36;;;;;;;13.48;1.67;;;10.20;99.90;;;;;;5064031;28;20053;-76
2023/12/26 01:27:03;;;;;;;6.70;1.90;;;10.10;99.90;;;;;;5066279;28;20044;-77
2023/12/26 01:29:30;;;;;;;10.90;1.45;;;10.10;99.90;;;;;;5068067;28;20078;-78
2023/12/26 01:31:57;;;;;;;13.68;2.70;;;10.10;99.90;;;;;;5067342;28;20109;-77
2023/12/26 01:34:24;;;;;;;13.20;2.75;;;10.10;99.90;;;;;;5067922;28;20048;-78
2023/12/26 01:36:51;;;;;;;8.65;1.95;;;10.00;99.90;;;;;;5067653;28;20128;-77
2023/12/26 01:39:18;;;;;;;11.85;1.88;;;9.90;99.90;;;;;;5067104;28;20049;-77
2023/12/26 01:41:45;;;;;;;19.95;2.20;;;9.90;99.90;;;;;;5067591;28;20044;-77
2023/12/26 01:44:12;;;;;;;11.95;2.33;;;9.90;99.90;;;;;;5067952;28;20049;-79
2023/12/26 01:46:39;;;;;;;11.18;1.45;;;9.80;99.90;;;;;;5067766;28;20044;-78
2023/12/26 01:49:06;;;;;;;10.75;1.83;;;9.80;99.90;;;;;;5066766;28;20052;-78
2023/12/26 01:51:33;;;;;;;14.05;1.58;;;9.80;99.90;;;;;;5066142;28;20068;-77
2023/12/26 01:54:00;;;;;;;10.10;2.22;;;9.80;99.90;;;;;;5066520;28;20590;-77
2023/12/26 01:56:27;;;;;;;15.52;2.00;;;9.80;99.90;;;;;;5066172;28;20076;-77
2023/12/26 01:58:54;;;;;;;13.27;2.25;;;9.70;99.90;;;;;;5066734;28;20052;-78
2023/12/26 02:01:21;;;;;;;15.05;3.08;;;9.70;99.90;;;;;;5066351;28;20036;-77
2023/12/26 02:03:48;;;;;;;14.00;2.15;;;9.70;99.90;;;;;;5067327;28;20375;-79
2023/12/26 02:06:15;;;;;;;11.00;2.20;;;9.70;99.90;;;;;;5066437;28;20048;-75
2023/12/26 02:08:42;;;;;;;12.77;1.88;;;9.60;99.90;;;;;;5067599;28;20044;-77
2023/12/26 02:11:10;;;;;;;12.00;1.98;;;9.60;99.90;;;;;;5071081;28;20053;-76
2023/12/26 02:13:38;;;;;;;9.45;1.83;;;9.60;99.90;;;;;;5070502;28;20056;-78
2023/12/26 02:16:13;;;;;;;8.40;1.30;;;9.50;99.90;;;;;;5071069;28;20059;-76
2023/12/26 02:18:40;;;;;;;8.38;1.92;;;9.50;99.90;;;;;;5069463;28;20124;-77
2023/12/26 02:21:07;;;;;;;9.02;1.38;;;9.50;99.90;;;;;;5069578;28;20053;-77
2023/12/26 02:23:37;;;;;;;11.25;3.10;;;9.40;99.90;;;;;;5067790;28;20080;-77
2023/12/26 02:26:04;;;;;;;17.98;2.17;;;9.40;99.90;;;;;;5071587;28;20059;-76
2023/12/26 02:28:32;;;;;;;10.70;1.80;;;9.30;99.90;;;;;;5069246;28;20051;-76
2023/12/26 02:31:02;;;;;;;11.73;1.90;;;9.40;99.90;;;;;;5070018;28;20561;-76
2023/12/26 02:33:30;;;;;;;7.13;1.60;;;9.30;99.90;;;;;;5060623;28;20052;-77
2023/12/26 02:36:00;;;;;;;11.90;1.75;;;9.30;99.90;;;;;;5069719;28;20036;-76
2023/12/26 02:38:27;;;;;;;9.50;1.35;;;9.30;99.90;;;;;;5069131;28;20099;-77
2023/12/26 02:40:54;;;;;;;11.63;1.65;;;9.20;99.90;;;;;;5071196;28;20131;-77
2023/12/26 02:43:21;;;;;;;11.45;1.58;;;9.20;99.90;;;;;;5070271;28;20040;-77
2023/12/26 02:45:49;;;;;;;12.40;1.83;;;9.20;99.90;;;;;;5069438;28;20495;-77
2023/12/26 02:48:19;;;;;;;7.88;1.42;;;9.20;99.90;;;;;;5070253;28;20041;-77
2023/12/26 02:50:46;;;;;;;8.85;1.80;;;9.10;99.90;;;;;;5070891;28;20063;-76
2023/12/26 02:53:13;;;;;;;15.38;2.65;;;9.10;99.90;;;;;;5070349;28;20135;-77
2023/12/26 02:55:40;;;;;;;14.18;1.73;;;9.10;99.90;;;;;;5069356;28;20078;-78
2023/12/26 02:58:07;;;;;;;8.95;1.40;;;9.00;99.90;;;;;;5070512;28;20049;-76
2023/12/26 03:00:34;;;;;;;8.55;1.58;;;9.00;99.90;;;;;;5070156;28;20071;-76
2023/12/26 03:03:01;;;;;;;7.88;1.05;;;9.00;99.90;;;;;;5070873;28;20045;-76
2023/12/26 03:05:28;;;;;;;9.15;1.95;;;9.00;99.90;;;;;;5069926;28;20140;-77
2023/12/26 03:07:55;;;;;;;10.23;1.50;;;8.90;99.90;;;;;;5070769;28;20048;-77
2023/12/26 03:10:22;;;;;;;19.98;3.25;;;8.90;99.90;;;;;;5069527;28;20048;-77
2023/12/26 03:12:49;;;;;;;7.05;1.42;;;8.90;99.90;;;;;;5070388;28;20056;-77
2023/12/26 03:15:15;;;;;;;16.80;2.28;;;8.90;99.90;;;;;;5069977;28;20076;-75
2023/12/26 03:17:42;;;;;;;9.80;2.30;;;8.80;99.90;;;;;;5070289;28;20127;-78
2023/12/26 03:20:10;;;;;;;20.08;2.08;;;8.80;99.90;;;;;;5069921;28;20474;-75
2023/12/26 03:22:39;;;;;;;9.98;2.10;;;8.80;99.90;;;;;;5070412;28;20048;-76
2023/12/26 03:25:07;;;;;;;10.38;1.58;;;8.80;99.90;;;;;;5069643;28;20045;-77
2023/12/26 03:27:34;;;;;;;12.43;2.00;;;8.70;99.90;;;;;;5070191;28;20568;-76
2023/12/26 03:30:00;;;;;;;11.40;2.63;;;8.70;99.90;;;;;;5069498;28;20048;-76
2023/12/26 03:32:27;;;;;;;10.32;1.63;;;8.70;99.90;;;;;;5058759;28;20120;-76
2023/12/26 03:34:54;;;;;;;12.80;1.65;;;8.70;99.90;;;;;;5070029;28;20080;-76
2023/12/26 03:37:21;;;;;;;10.55;1.60;;;8.70;99.90;;;;;;5069469;28;20051;-77
2023/12/26 03:39:48;;;;;;;10.48;2.17;;;8.70;99.90;;;;;;5070654;28;20048;-76
2023/12/26 03:42:15;;;;;;;16.55;2.28;;;8.70;99.90;;;;;;5073644;28;20051;-77
2023/12/26 03:44:43;;;;;;;20.33;2.92;;;8.70;99.90;;;;;;5076500;28;20048;-77
2023/12/26 03:47:10;;;;;;;13.13;2.53;;;8.70;99.90;;;;;;5070309;28;20045;-76
2023/12/26 03:49:37;;;;;;;12.57;1.95;;;8.70;99.90;;;;;;5069837;28;20049;-77
2023/12/26 03:52:04;;;;;;;8.90;2.28;;;8.70;99.90;;;;;;5069168;28;20098;-76
2023/12/26 03:54:31;;;;;;;16.40;2.38;;;8.60;99.90;;;;;;5066277;28;20466;-76
2023/12/26 03:56:58;;;;;;;15.85;2.38;;;8.60;99.90;;;;;;5068969;28;20064;-77
2023/12/26 03:59:25;;;;;;;8.60;2.00;;;8.60;99.90;;;;;;5069485;28;20049;-76
2023/12/26 04:01:52;;;;;;;16.38;2.78;;;8.60;99.90;;;;;;5068806;28;20036;-76
2023/12/26 04:04:18;;;;;;;18.35;3.67;;;8.50;99.90;;;;;;5069195;28;20495;-77
2023/12/26 04:06:46;;;;;;;9.73;2.45;;;8.50;99.90;;;;;;5066767;28;20047;-77
2023/12/26 04:09:13;;;;;;;16.92;2.10;;;8.50;99.90;;;;;;5068861;28;20092;-77
2023/12/26 04:11:40;;;;;;;11.63;2.05;;;8.50;99.90;;;;;;5068047;28;20139;-78
2023/12/26 04:14:07;;;;;;;16.38;3.10;;;8.50;99.90;;;;;;5069098;28;20579;-76
2023/12/26 04:16:34;;;;;;;11.50;2.88;;;8.50;99.90;;;;;;5068486;28;20044;-76
2023/12/26 04:19:00;;;;;;;9.65;1.73;;;8.50;99.90;;;;;;5057583;28;20041;-75
2023/12/26 04:21:27;;;;;;;17.15;2.95;;;8.50;99.90;;;;;;5068653;28;20048;-77
2023/12/26 04:23:54;;;;;;;13.80;2.15;;;8.50;99.90;;;;;;5066822;28;20037;-77
2023/12/26 04:26:21;;;;;;;15.73;2.47;;;8.40;99.90;;;;;;5068260;28;20128;-76
2023/12/26 04:28:48;;;;;;;12.63;2.25;;;8.40;99.90;;;;;;5068843;28;20052;-76
2023/12/26 04:31:15;;;;;;;19.73;2.92;;;8.50;99.90;;;;;;5068635;28;20048;-76
2023/12/26 04:33:42;;;;;;;11.90;2.30;;;8.40;99.90;;;;;;5068275;28;20547;-78
2023/12/26 04:36:09;;;;;;;13.30;1.95;;;8.40;99.90;;;;;;5068608;28;20078;-77
2023/12/26 04:38:36;;;;;;;8.38;1.70;;;8.40;99.90;;;;;;5066544;28;20548;-77
2023/12/26 04:41:03;;;;;;;14.60;1.80;;;8.40;99.90;;;;;;5068628;28;20156;-77
2023/12/26 04:43:30;;;;;;;15.02;2.00;;;8.40;99.90;;;;;;5067091;28;20049;-77
2023/12/26 04:45:56;;;;;;;21.30;3.08;;;8.40;99.90;;;;;;5068742;28;20048;-76
2023/12/26 04:48:24;;;;;;;13.88;2.20;;;8.40;99.90;;;;;;5067800;28;20059;-77
2023/12/26 04:50:51;;;;;;;15.15;2.08;;;8.40;99.90;;;;;;5068631;28;20052;-76
2023/12/26 04:53:18;;;;;;;9.07;1.80;;;8.40;99.90;;;;;;5067630;28;20051;-77
2023/12/26 04:55:44;;;;;;;19.15;2.78;;;8.40;99.90;;;;;;5068301;28;20530;-75
2023/12/26 04:58:11;;;;;;;12.23;2.10;;;8.40;99.90;;;;;;5068070;28;20045;-75
2023/12/26 05:00:38;;;;;;;27.95;4.72;;;8.40;99.90;;;;;;5068170;28;20389;-75
2023/12/26 05:03:05;;;;;;;13.50;2.30;;;8.30;99.90;;;;;;5068048;28;20036;-76
2023/12/26 05:05:33;;;;;;;18.42;3.22;;;8.30;99.90;;;;;;5066692;28;20135;-76
2023/12/26 05:07:59;;;;;;;21.75;2.58;;;8.30;99.90;;;;;;5067824;28;20049;-75
2023/12/26 05:10:26;;;;;;;13.73;2.17;;;8.30;99.90;;;;;;5068133;28;20495;-76
2023/12/26 05:12:53;;;;;;;12.93;2.63;;;8.30;99.90;;;;;;5068267;28;20044;-76
2023/12/26 05:15:21;;;;;;;17.50;2.40;;;8.20;99.90;;;;;;5068269;28;20040;-76
2023/12/26 05:17:48;;;;;;;19.17;3.05;;;8.30;99.90;;;;;;5068069;28;20048;-76
2023/12/26 05:20:16;;;;;;;14.60;2.70;;;8.30;99.90;;;;;;5066697;28;20506;-76
2023/12/26 05:22:56;;;;;;;12.60;2.10;;;8.30;99.90;;;;;;5068013;28;20052;-76
2023/12/26 05:25:24;;;;;;;16.90;3.15;;;8.20;99.90;;;;;;5067603;28;20431;-75
2023/12/26 05:27:51;;;;;;;9.90;2.63;;;8.30;99.90;;;;;;5068517;28;20045;-76
2023/12/26 05:30:18;;;;;;;18.65;3.63;;;8.20;99.90;;;;;;5067519;28;20523;-75
2023/12/26 05:32:46;;;;;;;24.88;2.35;;;8.20;99.90;;;;;;5068120;28;20441;-76
2023/12/26 05:35:13;;;;;;;13.18;1.95;;;8.10;99.90;;;;;;5067586;28;20044;-76
2023/12/26 05:37:40;;;;;;;16.02;2.75;;;8.10;99.90;;;;;;5068255;28;20531;-77
2023/12/26 05:40:07;;;;;;;11.73;2.40;;;8.10;99.90;;;;;;5067428;28;20051;-77
2023/12/26 05:42:34;;;;;;;10.48;1.95;;;8.10;99.90;;;;;;5068060;28;20040;-76
2023/12/26 05:45:03;;;;;;;19.70;2.05;;;8.10;99.90;;;;;;5067168;28;20044;-76
2023/12/26 05:47:30;;;;;;;17.30;2.45;;;8.00;99.90;;;;;;5067857;28;20052;-77
2023/12/26 05:49:58;;;;;;;12.57;2.25;;;8.00;99.90;;;;;;5067699;28;20246;-75
2023/12/26 05:52:26;;;;;;;14.75;3.90;;;8.10;99.90;;;;;;5067751;28;20037;-77
2023/12/26 05:54:53;;;;;;;14.25;2.25;;;8.00;99.90;;;;;;5066879;28;20052;-77
2023/12/26 05:57:20;;;;;;;16.38;3.28;;;8.00;99.90;;;;;;5067551;28;20040;-78
2023/12/26 05:59:47;;;;;;;18.25;2.40;;;8.00;99.90;;;;;;5068442;28;20048;-77
2023/12/26 06:02:14;;;;;;;16.30;2.70;;;8.00;99.90;;;;;;5071787;28;20098;-77
2023/12/26 06:04:41;;;;;;;14.52;2.03;;;8.00;99.90;;;;;;5071069;28;20491;-76
2023/12/26 06:07:07;;;;;;;14.77;2.55;;;8.00;99.90;;;;;;5071841;28;20277;-76
2023/12/26 06:09:34;;;;;;;8.23;1.40;;;8.00;99.90;;;;;;5071131;28;20044;-76
2023/12/26 06:12:01;;;;;;;6.80;1.63;;;8.00;99.90;;;;;;5071522;28;20129;-76
2023/12/26 06:14:28;;;;;;;14.85;2.40;;;8.00;99.90;;;;;;5070199;28;20083;-77
2023/12/26 06:16:55;;;;;;;11.60;2.80;;;8.00;99.90;;;;;;5071151;28;20045;-77
2023/12/26 06:19:22;;;;;;;10.85;1.58;;;8.00;99.90;;;;;;5071066;28;20072;-76
2023/12/26 06:21:50;;;;;;;11.15;1.98;;;8.00;99.90;;;;;;5074861;28;20040;-76
2023/12/26 06:24:16;;;;;;;18.88;3.38;;;8.00;99.90;;;;;;5077624;28;20044;-76
2023/12/26 06:26:43;;;;;;;11.40;3.08;;;8.00;99.90;;;;;;5071938;28;20054;-76
2023/12/26 06:29:10;;;;;;;15.73;3.70;;;8.00;99.90;;;;;;5071315;28;20051;-77
2023/12/26 06:31:37;;;;;;;14.57;2.60;;;8.00;99.90;;;;;;5070543;28;20044;-76
2023/12/26 06:34:04;;;;;;;16.95;3.40;;;8.00;99.90;;;;;;5071225;28;20098;-76
2023/12/26 06:36:32;;;;;;;10.77;1.60;;;8.00;99.90;;;;;;5070596;28;20049;-77
2023/12/26 06:39:00;;;;;;;14.27;2.13;;;8.00;99.90;;;;;;5069319;28;20106;-78
2023/12/26 06:41:28;;;;;;;9.20;2.05;;;8.00;99.90;;;;;;5070125;28;20055;-76
2023/12/26 06:43:56;;;;;;;10.70;2.13;;;7.90;99.90;;;;;;5071044;28;20048;-77
2023/12/26 06:46:23;;;;;;;23.65;1.88;;;8.00;99.90;;;;;;5069002;28;20059;-75
2023/12/26 06:48:49;;;;;;;9.02;2.00;;;8.00;99.90;;;;;;5070595;28;20049;-76
2023/12/26 06:51:17;;;;;;;11.93;2.15;;;7.90;99.90;;;;;;5069935;28;20079;-77
2023/12/26 06:53:44;;;;;;;17.52;2.38;;;7.90;99.90;;;;;;5066802;28;20092;-77
2023/12/26 06:56:10;;;;;;;14.52;2.00;;;7.90;99.90;;;;;;5070171;28;20057;-76
2023/12/26 06:58:37;;;;;;;19.55;2.20;;;7.90;99.90;;;;;;5070591;28;20048;-77
2023/12/26 07:01:09;;;;;;;9.05;2.08;;;7.80;99.90;;;;;;5070635;28;20102;-76
2023/12/26 07:03:35;;;;;;;16.77;2.53;;;7.90;99.90;;;;;;5069647;28;20044;-76
2023/12/26 07:06:02;;;;;;;17.95;2.60;;;7.90;99.90;;;;;;5070570;28;20388;-76
2023/12/26 07:08:29;;;;;;;15.30;1.85;;;7.90;99.90;;;;;;5069703;28;20045;-76
2023/12/26 07:10:56;;;;;;;13.60;2.05;;;7.80;99.90;;;;;;5069484;28;20067;-77
2023/12/26 07:13:23;;;;;;;11.68;2.10;;;7.80;99.90;;;;;;5069837;28;20071;-77
2023/12/26 07:15:52;;;;;;;10.73;2.38;;;7.80;99.90;;;;;;5069127;28;20483;-77
2023/12/26 07:18:19;;;;;;;9.63;2.03;;;7.80;99.90;;;;;;5070174;28;20044;-76
2023/12/26 07:20:46;;;;;;;13.18;1.80;;;7.80;99.90;;;;;;5070138;28;20094;-75
2023/12/26 07:23:13;;;;;;;14.90;2.17;;;7.80;99.90;;;;;;5069646;28;20491;-76
2023/12/26 07:25:41;;;;;;;8.98;1.63;;;7.70;99.90;;;;;;5070321;28;20040;-76
2023/12/26 07:28:08;;;;;;;14.40;3.17;;;7.70;99.90;;;;;;5069732;28;20086;-76
2023/12/26 07:30:34;;;;;;;8.00;1.75;;;7.70;99.90;;;;;;5064739;28;20041;-77
2023/12/26 07:33:02;;;;;;;20.88;2.67;;;7.70;99.90;;;;;;5057005;28;20053;-77
2023/12/26 07:35:30;;;;;;;14.32;1.83;;;7.60;99.90;;;;;;5069865;28;20086;-77
2023/12/26 07:37:57;;;;;;;14.75;2.35;;;7.70;99.90;;;;;;5068189;28;20517;-77
2023/12/26 07:40:24;;;;;;;12.38;1.80;;;7.70;99.90;;;;;;5069959;28;20053;-77
2023/12/26 07:42:51;;;;;;;13.50;2.08;;;7.60;99.90;;;;;;5068187;28;20044;-77
2023/12/26 07:45:23;;;;;;;10.88;2.28;;;7.60;99.90;;;;;;5067653;28;20055;-77
2023/12/26 07:47:50;;;;;;;14.95;2.40;;;7.60;99.90;;;;;;5066909;28;20045;-77
2023/12/26 07:50:17;;;;;;;13.85;2.30;;;7.60;99.90;;;;;;5068207;28;20055;-76
2023/12/26 07:52:44;;;;;;;9.80;2.45;;;7.50;99.90;;;;;;5069515;28;20087;-77
2023/12/26 07:55:14;;;;;;;14.13;4.72;;;7.60;99.90;;;;;;5068534;28;20059;-76
2023/12/26 07:57:44;;;;;;;19.08;2.88;;;7.60;99.90;;;;;;5069238;28;20533;-76
2023/12/26 08:00:12;;;;;;;17.23;2.17;;;7.50;99.90;;;;;;5068144;28;20045;-77
2023/12/26 08:02:38;;;;;;;11.70;2.60;;;7.60;99.90;;;;;;5065655;28;20143;-76
2023/12/26 08:05:05;;;;;;;22.50;4.15;;;7.50;99.90;;;;;;5067780;28;20128;-76
2023/12/26 08:07:32;;;;;;;11.70;2.08;;;7.60;99.90;;;;;;5068889;28;20048;-76
2023/12/26 08:09:59;;;;;;;14.88;2.22;;;7.50;99.90;;;;;;5065328;28;20134;-76
2023/12/26 08:12:26;;;;;;;15.75;2.65;;;7.50;99.90;;;;;;5066033;28;20063;-76
2023/12/26 08:14:53;;;;;;;11.40;2.83;;;7.50;99.90;;;;;;5065298;28;20132;-76
2023/12/26 08:17:20;;;;;;;19.50;3.17;;;7.50;99.90;;;;;;5062795;28;20045;-76
2023/12/26 08:19:47;;;;;;;9.88;2.00;;;7.50;99.90;;;;;;5068139;28;20106;-76
2023/12/26 08:22:14;;;;;;;13.50;1.70;;;7.50;99.90;;;;;;5068456;28;20300;-76
2023/12/26 08:24:40;;;;;;;22.60;5.53;;;7.50;99.90;;;;;;4714972;28;9999983;-77
2023/12/26 08:27:07;;;;;;;11.43;2.00;;;7.50;99.90;;;;;;5063632;28;20503;-77
2023/12/26 08:29:34;;;;;;;19.20;2.30;;;7.50;99.90;;;;;;5059366;28;20053;-77
2023/12/26 08:32:02;;;;;;;11.68;3.45;;;7.50;99.90;;;;;;5060017;28;20086;-76
2023/12/26 08:34:29;;;;;;;13.57;2.38;;;7.50;99.90;;;;;;5063239;28;20071;-76
2023/12/26 08:36:56;;;;;;;21.27;2.83;;;7.50;99.90;;;;;;5061663;28;20102;-75
2023/12/26 08:39:23;;;;;;;22.23;3.22;;;7.50;99.90;;;;;;5061865;28;20101;-77
2023/12/26 08:41:50;;;;;;;18.60;2.67;;;7.50;99.90;;;;;;5062485;28;20135;-76
2023/12/26 08:44:17;;;;;;;13.27;2.33;;;7.50;99.90;;;;;;5044185;28;20849;-76
2023/12/26 08:46:44;;;;;;;9.18;2.63;;;7.50;99.90;;;;;;5062724;28;20106;-78
2023/12/26 08:49:10;;;;;;;16.58;2.72;;;7.50;99.90;;;;;;5065520;28;20036;-74
2023/12/26 08:51:40;;;;;;;21.15;2.65;;;7.50;99.90;;;;;;5066186;28;20098;-67
2023/12/26 08:54:07;;;;;;;14.85;2.13;;;7.50;99.90;;;;;;5061963;28;20052;-68
2023/12/26 08:56:39;;;;;;;11.52;2.20;;;7.60;99.90;;;;;;5063374;28;20041;-67
2023/12/26 08:59:06;;;;;;;17.52;2.25;;;7.60;99.90;;;;;;5064461;28;20475;-66
2023/12/26 09:01:35;;;;;;;17.70;3.83;;;7.60;99.90;;;;;;5066868;28;20086;-68
2023/12/26 09:04:03;;;;;;;15.15;2.15;;;7.50;99.90;;;;;;5064597;28;20049;-69
2023/12/26 09:06:30;;;;;;;7.95;1.88;;;7.60;99.90;;;;;;5062450;28;20040;-69
2023/12/26 09:08:58;;;;;;;18.77;2.08;;;7.60;99.90;;;;;;5064280;28;20037;-69
2023/12/26 09:11:25;;;;;;;18.00;2.22;;;7.50;99.90;;;;;;5064260;28;20068;-72
2023/12/26 09:13:52;;;;;;;16.88;2.78;;;7.50;99.90;;;;;;5062974;28;20980;-70
2023/12/26 09:16:19;;;;;;;16.17;2.58;;;7.60;99.90;;;;;;5064579;28;20056;-70
2023/12/26 09:18:47;;;;;;;19.38;3.45;;;7.60;99.90;;;;;;5065657;28;20044;-69
2023/12/26 09:21:16;;;;;;;17.98;4.63;;;7.60;99.90;;;;;;5063469;28;20053;-70
2023/12/26 09:23:43;;;;;;;9.20;2.53;;;7.60;99.90;;;;;;5063551;28;20041;-69
2023/12/26 09:26:12;;;;;;;23.30;2.50;;;7.70;99.90;;;;;;5064421;28;20105;-71
2023/12/26 09:28:39;;;;;;;17.88;2.85;;;7.70;99.90;;;;;;5064632;28;20048;-71
2023/12/26 09:31:05;;;;;;;13.85;2.08;;;7.70;99.90;;;;;;5064183;28;20045;-69
2023/12/26 09:33:32;;;;;;;18.33;3.05;;;7.80;99.90;;;;;;5064184;28;20041;-68
2023/12/26 09:35:59;;;;;;;18.42;2.72;;;7.80;99.90;;;;;;5062789;28;20055;-70
2023/12/26 09:38:26;;;;;;;15.35;2.72;;;7.80;99.90;;;;;;5062970;28;20055;-70
2023/12/26 09:40:53;;;;;;;23.50;4.85;;;7.80;99.90;;;;;;5064366;28;20044;-70
2023/12/26 09:43:20;;;;;;;8.98;2.08;;;7.90;99.90;;;;;;5065195;28;20052;-69
2023/12/26 09:45:47;;;;;;;15.35;3.30;;;7.90;99.90;;;;;;5062423;28;20045;-69
2023/12/26 09:48:14;;;;;;;13.73;2.55;;;7.90;99.90;;;;;;5062936;28;20457;-70
2023/12/26 09:50:41;;;;;;;26.80;3.45;;;7.90;99.90;;;;;;5061396;28;20130;-70
2023/12/26 09:53:09;;;;;;;18.55;2.45;;;8.00;99.90;;;;;;5063559;28;20045;-71
2023/12/26 09:55:35;;;;;;;13.15;2.15;;;8.00;99.90;;;;;;5063347;28;20419;-71
2023/12/26 09:58:02;;;;;;;13.95;2.63;;;8.00;99.90;;;;;;5063947;28;20114;-71
2023/12/26 10:00:29;;;;;;;17.42;3.03;;;8.00;99.90;;;;;;5064260;28;20506;-71
2023/12/26 10:02:57;;;;;;;12.57;2.15;;;8.00;99.90;;;;;;5063989;28;20053;-71
2023/12/26 10:05:25;;;;;;;15.10;3.35;;;8.00;99.90;;;;;;5063467;28;20047;-70
2023/12/26 10:07:52;;;;;;;21.08;2.55;;;8.10;99.90;;;;;;5055097;28;20055;-71
2023/12/26 10:10:20;;;;;;;11.75;2.15;;;8.10;99.90;;;;;;5065167;28;20442;-70
2023/12/26 10:12:48;;;;;;;10.82;2.35;;;8.00;99.90;;;;;;5065287;28;20135;-70
2023/12/26 10:15:15;;;;;;;17.35;3.15;;;8.00;99.90;;;;;;5065162;28;20044;-69
2023/12/26 10:17:43;;;;;;;13.15;2.55;;;8.00;99.90;;;;;;5064958;28;20140;-70
2023/12/26 10:20:16;;;;;;;10.65;2.70;;;8.00;99.90;;;;;;5062052;28;20044;-70
2023/12/26 10:22:43;;;;;;;8.80;2.30;;;8.10;99.90;;;;;;5060858;28;20488;-70
2023/12/26 10:25:11;;;;;;;16.10;2.00;;;8.00;99.90;;;;;;5060618;28;20538;-70
2023/12/26 10:27:38;;;;;;;10.82;2.10;;;8.10;99.90;;;;;;5063516;28;20044;-69
2023/12/26 10:30:05;;;;;;;18.13;2.55;;;8.10;99.90;;;;;;5063830;28;20041;-71
2023/12/26 10:32:33;;;;;;;7.22;1.83;;;8.10;99.90;;;;;;5060522;28;20098;-69
2023/12/26 10:35:15;;;;;;;18.60;2.95;;;8.10;99.90;;;;;;5064236;28;20419;-68
2023/12/26 10:37:42;;;;;;;12.48;1.67;;;8.10;99.90;;;;;;5060605;28;20048;-68
2023/12/26 10:40:10;;;;;;;19.67;3.55;;;8.20;99.90;;;;;;5062637;28;20072;-68
2023/12/26 10:42:37;;;;;;;13.55;2.08;;;8.20;99.90;;;;;;5059074;28;20120;-68
2023/12/26 10:45:05;;;;;;;7.88;2.33;;;8.20;99.90;;;;;;5062332;28;20044;-68
2023/12/26 10:47:32;;;;;;;19.92;3.00;;;8.20;99.90;;;;;;5065397;28;20056;-68
2023/12/26 10:50:00;;;;;;;11.80;2.33;;;8.30;99.90;;;;;;5066580;28;20071;-68
2023/12/26 10:52:28;;;;;;;11.05;2.45;;;8.20;99.90;;;;;;5062479;28;20052;-68
2023/12/26 10:55:00;;;;;;;13.07;2.60;;;8.20;99.90;;;;;;5065665;28;20064;-68
2023/12/26 10:57:33;;;;;;;10.75;2.47;;;8.20;99.90;;;;;;5064845;28;20051;-66
2023/12/26 11:00:50;;;;;;;14.60;2.30;;;8.20;99.90;;;;;;5063771;28;20044;-68
2023/12/26 13:52:48;;;;;;;12.95;2.50;;;9.10;99.90;;;;;;5061743;28;20041;-69
2023/12/26 13:55:15;;;;;;;18.52;2.63;;;9.10;99.90;;;;;;5057347;28;20488;-70
2023/12/26 13:57:42;;;;;;;16.48;2.50;;;9.20;99.90;;;;;;5060000;28;20403;-68
2023/12/26 14:00:09;;;;;;;13.45;3.95;;;9.20;99.90;;;;;;5060243;28;20063;-69
2023/12/26 14:02:36;;;;;;;9.77;1.85;;;9.30;99.90;;;;;;5066490;28;20044;-69
2023/12/26 14:05:03;;;;;;;11.20;2.20;;;9.30;99.90;;;;;;5052089;28;20052;-68
2023/12/26 14:07:31;;;;;;;10.32;2.55;;;9.30;99.90;;;;;;5060269;28;20049;-69
2023/12/26 14:10:36;;;;;;;18.20;2.67;;;9.30;99.90;;;;;;5056589;28;20359;-70
2023/12/26 14:13:40;;;;;;;13.43;2.75;;;9.20;99.90;;;;;;5061351;28;20044;-69
2023/12/26 14:16:44;;;;;;;11.10;2.45;;;9.30;99.90;;;;;;5057747;28;20110;-71
2023/12/26 14:19:49;;;;;;;11.95;2.47;;;9.20;99.90;;;;;;5051761;28;20045;-69
2023/12/26 14:22:53;;;;;;;8.90;1.80;;;9.30;99.90;;;;;;5064613;28;20060;-69
2023/12/26 14:25:20;;;;;;;9.18;2.55;;;9.30;99.90;;;;;;5065452;28;20045;-69
2023/12/26 14:27:47;;;;;;;19.52;3.20;;;9.30;99.90;;;;;;5073550;28;20045;-70
2023/12/26 14:30:14;;;;;;;9.90;2.42;;;9.30;99.90;;;;;;5070522;28;20471;-69
2023/12/26 14:32:41;;;;;;;19.35;3.33;;;9.20;99.90;;;;;;5063040;28;20147;-71
2023/12/26 14:35:08;;;;;;;15.50;2.45;;;9.20;99.90;;;;;;5063920;28;20037;-73
2023/12/26 14:37:35;;;;;;;10.38;2.35;;;9.20;99.90;;;;;;5064412;28;20056;-73
2023/12/26 14:40:02;;;;;;;12.85;2.22;;;9.20;99.90;;;;;;5067144;28;20040;-72
2023/12/26 14:43:07;;;;;;;26.85;3.60;;;9.20;99.90;;;;;;5064760;28;20076;-74
2023/12/26 14:46:11;;;;;;;13.93;3.22;;;9.30;99.90;;;;;;5062861;28;20487;-72
2023/12/26 14:49:17;;;;;;;10.90;2.20;;;9.30;99.90;;;;;;5060023;28;20503;-72
2023/12/26 14:52:03;;;;;;;;;;;9.30;99.90;;;;;;5064734;28;20788;-72
2023/12/26 14:54:30;;;;;;;9.70;2.08;;;9.30;99.90;;;;;;5067949;28;20436;-72
2023/12/26 14:56:57;;;;;;;17.48;2.28;;;9.20;99.90;;;;;;5059478;28;20106;-72
2023/12/26 14:59:24;;;;;;;20.73;3.22;;;9.20;99.90;;;;;;5063063;28;20507;-71
2023/12/26 15:01:50;;;;;;;12.43;1.98;;;9.20;99.90;;;;;;5059058;28;20044;-71
2023/12/26 15:04:17;;;;;;;14.85;2.67;;;9.20;99.90;;;;;;5067560;28;20068;-71
2023/12/26 15:06:44;;;;;;;12.02;2.90;;;9.20;99.90;;;;;;5055835;28;20136;-72
2023/12/26 15:09:12;;;;;;;10.93;2.60;;;9.20;99.90;;;;;;5063594;28;20075;-71
2023/12/26 15:11:39;;;;;;;11.57;3.38;;;9.20;99.90;;;;;;5064590;28;20478;-71
2023/12/26 15:14:11;;;;;;;11.52;3.40;;;9.20;99.90;;;;;;5063954;28;20529;-71
2023/12/26 15:16:57;;;;;;;15.57;3.08;;;9.20;99.90;;;;;;5061242;28;20076;-70
2023/12/26 15:19:24;;;;;;;12.77;2.47;;;9.10;99.90;;;;;;5061387;28;20526;-69
2023/12/26 15:21:52;;;;;;;13.20;2.42;;;9.10;99.90;;;;;;5064503;28;20135;-73
2023/12/26 15:24:19;;;;;;;12.95;3.00;;;9.00;99.90;;;;;;5063389;28;20518;-72
2023/12/26 15:26:46;;;;;;;19.08;2.80;;;9.00;99.90;;;;;;5060429;28;20127;-72
2023/12/26 15:29:12;;;;;;;12.55;3.28;;;8.90;99.90;;;;;;5063904;28;20286;-71
2023/12/26 15:31:39;;;;;;;17.05;2.75;;;8.90;99.90;;;;;;5057968;28;20048;-73
2023/12/26 15:34:07;;;;;;;9.65;2.50;;;8.90;99.90;;;;;;5064930;28;20052;-71
2023/12/26 15:36:34;;;;;;;20.10;2.53;;;8.80;99.90;;;;;;5049738;28;20055;-72
2023/12/26 15:39:01;;;;;;;7.32;2.10;;;8.70;99.90;;;;;;5064212;28;20048;-71
2023/12/26 15:41:28;;;;;;;9.60;2.30;;;8.60;99.90;;;;;;5068213;28;20055;-71
2023/12/26 15:43:56;;;;;;;10.57;2.95;;;8.60;99.90;;;;;;5060766;28;20063;-72